Time;durP1;ratioP1;P1;durP2;ratioP2;P2;SDS_P1;SDS_P2;PMS_P1;PMS_P2;Temp;Humidity;BMP_temperature;BMP_pressure;BME280_temperature;BME280_humidity;BME280_pressure;Samples;Min_cycle;Max_cycle;Signal;HPM_P1;HPM_P2
2021/05/15 00:01:39;;;;;;;19.30;11.30;;;12.00;98.80;;;;;;4952949;28;20486;-74
2021/05/15 00:04:05;;;;;;;18.02;11.10;;;12.10;98.80;;;;;;4952503;28;20362;-72
2021/05/15 00:06:31;;;;;;;20.00;11.38;;;12.10;98.90;;;;;;4948255;28;20095;-73
2021/05/15 00:08:57;;;;;;;19.45;11.02;;;12.10;98.90;;;;;;4934416;28;20032;-71
2021/05/15 00:11:23;;;;;;;15.57;10.18;;;12.20;98.90;;;;;;4954243;29;20023;-73
2021/05/15 00:13:49;;;;;;;20.98;12.55;;;12.20;98.80;;;;;;4952039;28;20386;-73
2021/05/15 00:16:15;;;;;;;23.40;11.23;;;12.10;98.90;;;;;;4941804;28;20043;-72
2021/05/15 00:18:41;;;;;;;21.55;11.88;;;12.10;98.90;;;;;;4939766;28;20047;-73
2021/05/15 00:21:08;;;;;;;22.02;12.05;;;12.10;98.90;;;;;;4952242;28;20064;-73
2021/05/15 00:23:34;;;;;;;20.27;11.00;;;12.10;99.10;;;;;;4953898;28;20042;-72
2021/05/15 00:26:00;;;;;;;21.30;11.50;;;12.20;99.10;;;;;;4952171;28;20457;-72
2021/05/15 00:28:27;;;;;;;17.88;10.82;;;12.20;99.00;;;;;;4952058;28;20047;-72
2021/05/15 00:30:52;;;;;;;21.25;11.98;;;12.20;99.00;;;;;;4952199;28;20122;-72
2021/05/15 00:33:18;;;;;;;19.15;11.35;;;12.30;99.10;;;;;;4951909;28;20130;-73
2021/05/15 00:35:43;;;;;;;19.63;11.07;;;12.30;99.10;;;;;;4953959;29;20035;-73
2021/05/15 00:38:10;;;;;;;18.92;11.20;;;12.30;99.10;;;;;;4952138;28;20394;-73
2021/05/15 00:40:36;;;;;;;20.08;11.98;;;12.30;99.20;;;;;;4950775;28;20057;-73
2021/05/15 00:43:02;;;;;;;26.20;13.80;;;12.50;99.10;;;;;;4952143;28;20039;-72
2021/05/15 00:45:28;;;;;;;22.45;14.15;;;12.40;99.10;;;;;;4950903;28;20138;-73
2021/05/15 00:47:53;;;;;;;20.10;11.75;;;12.40;99.10;;;;;;4952234;28;20086;-73
2021/05/15 00:50:19;;;;;;;23.30;15.00;;;12.40;99.00;;;;;;4951259;29;20054;-73
2021/05/15 00:52:47;;;;;;;22.13;14.02;;;12.40;99.10;;;;;;4951933;28;20059;-73
2021/05/15 00:55:14;;;;;;;23.83;14.35;;;12.50;99.20;;;;;;4952096;28;20122;-74
2021/05/15 00:57:41;;;;;;;21.20;12.90;;;12.50;99.00;;;;;;4952009;28;20039;-72
2021/05/15 01:00:09;;;;;;;19.73;12.38;;;12.60;99.00;;;;;;4951638;28;20034;-72
2021/05/15 01:02:35;;;;;;;23.27;14.40;;;12.70;99.00;;;;;;4953230;29;20357;-73
2021/05/15 01:05:01;;;;;;;23.92;12.80;;;12.70;99.00;;;;;;4951489;28;20047;-73
2021/05/15 01:07:27;;;;;;;19.20;12.07;;;12.70;99.00;;;;;;4939334;28;20032;-73
2021/05/15 01:09:52;;;;;;;19.52;12.15;;;12.70;99.00;;;;;;4940130;28;20070;-73
2021/05/15 01:12:18;;;;;;;19.13;12.90;;;12.80;98.90;;;;;;4948388;28;20474;-72
2021/05/15 01:14:44;;;;;;;20.30;12.68;;;12.80;98.80;;;;;;4934317;29;20038;-74
2021/05/15 01:17:10;;;;;;;21.92;12.55;;;12.80;98.90;;;;;;4950322;28;20045;-72
2021/05/15 01:19:37;;;;;;;24.85;15.50;;;12.80;99.00;;;;;;4947240;28;20361;-73
2021/05/15 01:22:11;;;;;;;25.95;16.13;;;12.60;99.00;;;;;;4940963;28;20058;-72
2021/05/15 01:24:39;;;;;;;24.98;15.82;;;12.70;99.00;;;;;;4951018;28;20043;-72
2021/05/15 01:27:06;;;;;;;29.38;16.80;;;12.80;98.90;;;;;;4951382;28;20126;-71
2021/05/15 01:29:32;;;;;;;29.20;16.27;;;12.80;98.80;;;;;;4953091;29;20102;-73
2021/05/15 01:31:58;;;;;;;25.67;15.30;;;12.80;98.90;;;;;;4951710;28;20035;-74
2021/05/15 01:34:24;;;;;;;25.42;15.50;;;12.90;99.10;;;;;;4951430;28;20039;-74
2021/05/15 01:36:49;;;;;;;24.15;15.70;;;12.80;98.90;;;;;;4983909;28;20038;-73
2021/05/15 01:39:15;;;;;;;28.83;16.63;;;13.00;98.90;;;;;;4988715;28;20022;-73
2021/05/15 01:41:42;;;;;;;25.42;17.13;;;12.90;98.80;;;;;;4991241;28;20448;-73
2021/05/15 01:44:08;;;;;;;28.42;17.73;;;13.00;98.80;;;;;;5005157;28;20349;-72
2021/05/15 01:46:34;;;;;;;22.92;14.40;;;13.10;98.80;;;;;;4990285;28;20050;-71
2021/05/15 01:48:59;;;;;;;27.48;17.30;;;13.10;99.00;;;;;;4990134;28;20050;-71
2021/05/15 01:51:26;;;;;;;28.15;18.60;;;13.00;98.80;;;;;;4990214;28;20088;-72
2021/05/15 01:53:52;;;;;;;26.30;17.50;;;13.10;98.80;;;;;;4991320;28;20031;-72
2021/05/15 01:56:37;;;;;;;27.35;17.00;;;13.00;98.70;;;;;;5001618;28;20483;-73
2021/05/15 01:59:04;;;;;;;28.00;17.42;;;13.20;98.80;;;;;;4987473;28;20069;-72
2021/05/15 02:01:30;;;;;;;33.22;19.25;;;13.20;98.50;;;;;;4989667;28;20039;-73
2021/05/15 02:03:55;;;;;;;26.33;17.98;;;13.20;98.60;;;;;;4990200;28;20051;-72
2021/05/15 02:06:21;;;;;;;27.65;16.80;;;13.10;98.60;;;;;;4989588;28;20041;-74
2021/05/15 02:08:48;;;;;;;24.08;15.77;;;13.20;98.60;;;;;;4991399;28;20128;-74
2021/05/15 02:11:17;;;;;;;26.90;16.30;;;13.20;98.80;;;;;;4989852;28;20100;-73
2021/05/15 02:13:47;;;;;;;25.15;15.85;;;13.10;98.80;;;;;;4989702;28;20042;-73
2021/05/15 02:16:13;;;;;;;23.83;15.40;;;13.10;98.80;;;;;;4989383;28;20044;-72
2021/05/15 02:18:39;;;;;;;28.17;16.15;;;13.00;99.00;;;;;;4989544;28;20038;-72
2021/05/15 02:21:05;;;;;;;25.25;16.30;;;13.00;98.90;;;;;;4989722;28;20026;-74
2021/05/15 02:23:31;;;;;;;26.60;16.13;;;13.00;98.90;;;;;;4991213;28;20444;-73
2021/05/15 02:25:57;;;;;;;32.95;16.92;;;12.80;99.00;;;;;;4989827;28;20042;-73
2021/05/15 02:28:22;;;;;;;30.50;17.40;;;12.80;99.20;;;;;;4989160;28;20068;-73
2021/05/15 02:30:49;;;;;;;28.58;16.88;;;12.70;99.00;;;;;;4989616;28;20361;-73
2021/05/15 02:33:15;;;;;;;29.27;17.02;;;12.60;99.20;;;;;;4991272;28;20058;-72
2021/05/15 02:35:40;;;;;;;25.77;17.13;;;12.60;99.50;;;;;;4994896;28;20403;-73
2021/05/15 02:38:10;;;;;;;26.55;16.45;;;12.50;99.20;;;;;;4993282;28;20166;-72
2021/05/15 02:40:36;;;;;;;28.40;16.70;;;12.50;99.10;;;;;;4993311;28;20038;-71
2021/05/15 02:43:02;;;;;;;29.83;17.65;;;12.50;99.20;;;;;;4992910;28;20109;-73
2021/05/15 02:45:27;;;;;;;27.20;17.58;;;12.40;99.10;;;;;;4992947;28;20468;-73
2021/05/15 02:47:53;;;;;;;27.92;16.83;;;12.40;99.20;;;;;;4994282;28;20026;-72
2021/05/15 02:50:21;;;;;;;29.33;17.50;;;12.30;99.10;;;;;;4993503;28;20030;-73
2021/05/15 02:52:47;;;;;;;29.30;17.48;;;12.30;99.30;;;;;;4992739;28;20045;-73
2021/05/15 02:55:20;;;;;;;27.67;16.83;;;12.20;99.20;;;;;;4992705;28;20484;-73
2021/05/15 02:57:46;;;;;;;29.75;18.23;;;12.20;99.30;;;;;;4992993;28;20416;-73
2021/05/15 03:00:16;;;;;;;28.95;17.40;;;12.20;99.30;;;;;;4992462;28;20279;-73
2021/05/15 03:02:42;;;;;;;28.98;18.23;;;12.10;99.30;;;;;;4994170;28;20156;-73
2021/05/15 03:05:12;;;;;;;34.17;19.33;;;12.10;99.30;;;;;;4991438;28;20129;-73
2021/05/15 03:07:37;;;;;;;37.95;19.13;;;12.00;99.40;;;;;;4977563;28;20116;-73
2021/05/15 03:10:05;;;;;;;31.48;18.42;;;12.00;99.40;;;;;;4982336;28;20034;-73
2021/05/15 03:12:31;;;;;;;32.15;19.40;;;12.10;99.40;;;;;;4992576;28;20035;-73
2021/05/15 03:14:56;;;;;;;31.30;20.00;;;12.10;99.30;;;;;;4992665;28;20041;-73
2021/05/15 03:17:22;;;;;;;33.33;19.05;;;12.00;99.40;;;;;;4992854;28;20395;-72
2021/05/15 03:19:48;;;;;;;32.17;19.63;;;12.00;99.50;;;;;;4992216;28;20034;-72
2021/05/15 03:22:14;;;;;;;31.13;19.58;;;12.10;99.70;;;;;;4992161;28;20043;-73
2021/05/15 03:24:40;;;;;;;31.33;19.13;;;12.10;99.50;;;;;;4992341;28;20698;-72
2021/05/15 03:27:05;;;;;;;34.88;19.83;;;12.10;99.60;;;;;;4992079;28;20101;-72
2021/05/15 03:29:31;;;;;;;33.40;19.38;;;12.00;99.50;;;;;;4993507;28;20475;-73
2021/05/15 03:31:57;;;;;;;36.95;20.60;;;12.00;99.60;;;;;;4992285;28;20049;-73
2021/05/15 03:34:23;;;;;;;34.03;20.30;;;11.90;99.60;;;;;;4987510;28;20046;-72
2021/05/15 03:36:48;;;;;;;29.80;18.70;;;11.90;99.60;;;;;;4980033;28;20031;-73
2021/05/15 03:39:18;;;;;;;36.70;19.80;;;11.90;99.60;;;;;;4992184;28;20133;-73
2021/05/15 03:41:45;;;;;;;35.20;21.45;;;11.90;99.50;;;;;;4993505;28;20034;-72
2021/05/15 03:44:11;;;;;;;37.28;21.70;;;11.80;99.50;;;;;;4991723;28;20030;-72
2021/05/15 03:46:36;;;;;;;34.05;20.25;;;11.80;99.50;;;;;;4991943;28;20357;-72
2021/05/15 03:49:03;;;;;;;31.95;20.63;;;11.80;99.60;;;;;;4992205;28;20069;-72
2021/05/15 03:51:28;;;;;;;31.15;19.42;;;11.80;99.50;;;;;;4990636;28;20049;-72
2021/05/15 03:53:54;;;;;;;34.65;19.92;;;11.80;99.40;;;;;;4991834;28;20030;-72
2021/05/15 03:56:19;;;;;;;35.67;20.13;;;11.70;99.50;;;;;;4992088;28;20080;-73
2021/05/15 03:58:45;;;;;;;37.30;22.15;;;11.70;99.50;;;;;;4991585;28;20091;-73
2021/05/15 04:01:11;;;;;;;34.40;19.67;;;11.60;99.30;;;;;;4990363;28;20361;-72
2021/05/15 04:03:36;;;;;;;35.47;18.98;;;11.50;99.40;;;;;;4992047;28;20125;-72
2021/05/15 04:06:02;;;;;;;32.10;18.95;;;11.50;99.40;;;;;;4991454;28;20069;-73
2021/05/15 04:08:27;;;;;;;31.38;18.38;;;11.60;99.40;;;;;;4993068;28;20049;-73
2021/05/15 04:10:53;;;;;;;30.08;16.98;;;11.50;99.30;;;;;;4991354;28;20245;-73
2021/05/15 04:13:32;;;;;;;28.00;16.58;;;11.50;99.20;;;;;;4991111;28;20480;-73
2021/05/15 04:16:01;;;;;;;28.00;18.33;;;11.50;99.40;;;;;;4990051;28;20126;-73
2021/05/15 04:18:28;;;;;;;30.52;18.30;;;11.50;99.30;;;;;;4991169;28;20030;-73
2021/05/15 04:20:55;;;;;;;26.27;17.25;;;11.60;99.30;;;;;;4992286;28;20106;-70
2021/05/15 04:23:21;;;;;;;28.83;16.90;;;11.60;99.30;;;;;;4991677;28;20042;-73
2021/05/15 04:25:47;;;;;;;26.35;16.48;;;11.50;99.30;;;;;;4990809;28;20042;-73
2021/05/15 04:28:13;;;;;;;26.20;16.73;;;11.60;99.30;;;;;;4990503;28;20185;-72
2021/05/15 04:30:40;;;;;;;31.85;16.98;;;11.50;99.20;;;;;;4991085;28;20456;-72
2021/05/15 04:33:05;;;;;;;23.08;15.52;;;11.50;99.20;;;;;;4990893;28;20022;-73
2021/05/15 04:35:32;;;;;;;26.35;15.55;;;11.50;99.30;;;;;;4992412;28;20026;-73
2021/05/15 04:38:02;;;;;;;24.25;15.38;;;11.60;99.30;;;;;;4991002;28;20046;-73
2021/05/15 04:40:29;;;;;;;28.75;15.68;;;11.70;99.40;;;;;;4990980;28;20189;-73
2021/05/15 04:42:55;;;;;;;25.65;16.15;;;11.80;99.30;;;;;;4990597;28;20043;-72
2021/05/15 04:45:20;;;;;;;22.02;14.15;;;11.80;99.40;;;;;;4989380;28;20048;-72
2021/05/15 04:47:46;;;;;;;21.98;13.85;;;11.90;99.20;;;;;;4992327;28;20034;-72
2021/05/15 04:50:12;;;;;;;21.25;13.02;;;12.00;99.20;;;;;;4972009;28;20047;-73
2021/05/15 04:52:38;;;;;;;24.60;14.98;;;12.10;99.30;;;;;;4984882;28;20053;-72
2021/05/15 04:55:05;;;;;;;26.50;16.25;;;12.10;99.20;;;;;;4989859;28;20046;-73
2021/05/15 04:57:31;;;;;;;35.90;19.38;;;12.10;99.20;;;;;;4990357;28;20096;-72
2021/05/15 04:59:56;;;;;;;35.85;19.60;;;12.20;99.20;;;;;;4989937;28;20034;-72
2021/05/15 05:02:22;;;;;;;32.13;18.77;;;12.30;99.50;;;;;;4991871;28;20026;-72
2021/05/15 05:04:48;;;;;;;28.15;17.38;;;12.20;99.30;;;;;;4990232;28;20456;-73
2021/05/15 05:07:13;;;;;;;30.65;19.13;;;12.30;99.30;;;;;;4990441;28;20446;-73
2021/05/15 05:09:39;;;;;;;33.70;20.30;;;12.30;99.20;;;;;;4990437;28;20039;-73
2021/05/15 05:12:05;;;;;;;32.72;20.23;;;12.40;99.10;;;;;;4990391;28;20080;-73
2021/05/15 05:14:31;;;;;;;33.33;19.38;;;12.40;99.20;;;;;;4991850;28;20031;-73
2021/05/15 05:16:56;;;;;;;36.63;21.08;;;12.40;99.20;;;;;;4990138;28;20439;-72
2021/05/15 05:19:25;;;;;;;34.80;20.85;;;12.40;99.20;;;;;;4990241;28;20069;-72
2021/05/15 05:21:52;;;;;;;30.13;20.35;;;12.40;99.20;;;;;;4990026;28;20061;-72
2021/05/15 05:24:18;;;;;;;31.48;20.42;;;12.40;99.30;;;;;;4990137;28;20030;-73
2021/05/15 05:26:44;;;;;;;34.28;20.58;;;12.40;99.40;;;;;;4992237;28;20034;-73
2021/05/15 05:29:10;;;;;;;31.42;19.77;;;12.40;99.30;;;;;;4989852;28;20054;-73
2021/05/15 05:31:38;;;;;;;30.83;20.38;;;12.40;99.40;;;;;;4990208;28;20088;-73
2021/05/15 05:34:05;;;;;;;29.85;19.05;;;12.40;99.40;;;;;;4990027;28;20041;-72
2021/05/15 05:36:31;;;;;;;32.67;19.70;;;12.30;99.40;;;;;;4989943;28;20053;-73
2021/05/15 05:38:56;;;;;;;35.17;20.75;;;12.40;99.50;;;;;;4988421;28;20515;-72
2021/05/15 05:41:24;;;;;;;30.52;19.20;;;12.50;99.40;;;;;;4990912;28;20238;-72
2021/05/15 05:43:53;;;;;;;33.72;19.85;;;12.60;99.40;;;;;;4989939;28;20034;-72
2021/05/15 05:46:20;;;;;;;29.30;19.55;;;12.60;99.40;;;;;;5005167;28;20100;-72
2021/05/15 05:48:46;;;;;;;27.75;18.15;;;12.70;99.30;;;;;;4989735;28;20042;-72
2021/05/15 05:51:11;;;;;;;27.85;18.75;;;12.90;99.20;;;;;;4989832;28;20022;-72
2021/05/15 05:53:37;;;;;;;29.52;18.75;;;13.10;99.10;;;;;;4990464;28;20739;-71
2021/05/15 05:56:04;;;;;;;29.60;18.90;;;13.10;98.90;;;;;;4989938;28;20118;-73
2021/05/15 05:58:29;;;;;;;31.35;19.75;;;13.20;98.90;;;;;;4989976;28;20062;-73
2021/05/15 06:00:55;;;;;;;29.20;18.90;;;13.20;98.80;;;;;;5005111;28;20085;-72
2021/05/15 06:03:20;;;;;;;30.13;19.73;;;13.40;98.80;;;;;;4988719;28;20027;-72
2021/05/15 06:05:46;;;;;;;28.83;17.95;;;13.30;99.00;;;;;;4991145;28;20125;-74
2021/05/15 06:08:12;;;;;;;29.70;18.77;;;13.30;98.80;;;;;;4974167;28;20061;-72
2021/05/15 06:10:38;;;;;;;26.52;17.15;;;13.40;98.90;;;;;;4987888;28;20066;-73
2021/05/15 06:13:06;;;;;;;25.60;17.33;;;13.50;98.90;;;;;;4993516;28;20023;-72
2021/05/15 06:15:31;;;;;;;25.67;17.38;;;13.70;98.80;;;;;;4993362;28;20411;-72
2021/05/15 06:17:57;;;;;;;28.98;18.10;;;13.70;98.50;;;;;;4993556;28;20023;-73
2021/05/15 06:20:23;;;;;;;28.02;17.52;;;13.80;98.70;;;;;;4994810;28;20023;-71
2021/05/15 06:22:49;;;;;;;25.98;17.95;;;13.80;98.40;;;;;;4993232;28;20117;-71
2021/05/15 06:25:15;;;;;;;28.67;17.92;;;13.90;98.30;;;;;;4993147;28;20110;-72
2021/05/15 06:27:41;;;;;;;26.42;17.25;;;13.90;98.30;;;;;;4993239;28;20030;-72
2021/05/15 06:30:07;;;;;;;27.85;18.40;;;13.90;98.30;;;;;;4992888;28;20053;-73
2021/05/15 06:32:33;;;;;;;27.13;18.25;;;14.00;98.30;;;;;;4994582;28;20087;-73
2021/05/15 06:34:59;;;;;;;26.45;17.48;;;14.30;98.20;;;;;;5008391;28;20133;-72
2021/05/15 06:37:24;;;;;;;27.23;18.38;;;14.60;98.00;;;;;;4992806;28;20415;-72
2021/05/15 06:39:50;;;;;;;24.27;17.00;;;14.80;97.60;;;;;;4993079;28;20173;-73
2021/05/15 06:42:16;;;;;;;24.67;16.25;;;15.00;97.30;;;;;;4992949;28;20041;-72
2021/05/15 06:44:41;;;;;;;21.45;14.13;;;15.20;97.00;;;;;;4994264;28;20034;-72
2021/05/15 06:47:07;;;;;;;17.13;11.02;;;15.50;96.70;;;;;;4992709;28;20030;-72
2021/05/15 06:49:33;;;;;;;15.65;10.20;;;15.80;95.80;;;;;;4988695;28;20050;-72
2021/05/15 06:51:58;;;;;;;15.43;10.00;;;16.00;95.40;;;;;;4982029;28;20109;-72
2021/05/15 06:54:24;;;;;;;13.50;9.30;;;16.20;94.90;;;;;;4992592;28;20079;-72
2021/05/15 06:56:50;;;;;;;14.05;8.45;;;16.10;94.50;;;;;;4993868;28;20042;-72
2021/05/15 06:59:17;;;;;;;13.63;9.55;;;16.10;94.60;;;;;;4992684;28;20483;-73
2021/05/15 07:01:43;;;;;;;15.20;10.85;;;16.00;94.50;;;;;;4992359;28;20145;-71
2021/05/15 07:04:09;;;;;;;13.07;9.57;;;16.10;94.60;;;;;;4992307;28;20428;-72
2021/05/15 07:06:34;;;;;;;14.43;7.75;;;16.20;94.60;;;;;;4992318;28;20129;-72
2021/05/15 07:09:00;;;;;;;9.45;7.55;;;16.30;94.40;;;;;;4992577;28;20027;-73
2021/05/15 07:11:25;;;;;;;12.82;7.55;;;16.50;94.30;;;;;;4994393;28;20030;-72
2021/05/15 07:13:51;;;;;;;10.00;7.07;;;16.60;93.90;;;;;;4992645;28;20042;-71
2021/05/15 07:16:17;;;;;;;9.55;7.03;;;16.80;93.50;;;;;;4992220;28;20046;-72
2021/05/15 07:18:42;;;;;;;9.68;6.70;;;16.90;93.30;;;;;;4991575;28;20045;-72
2021/05/15 07:21:08;;;;;;;10.90;6.55;;;17.20;92.70;;;;;;4992180;28;20037;-71
2021/05/15 07:23:33;;;;;;;10.25;6.85;;;17.10;92.80;;;;;;4992576;28;20041;-70
2021/05/15 07:25:59;;;;;;;8.23;6.63;;;17.20;92.60;;;;;;4991909;28;20045;-75
2021/05/15 07:28:24;;;;;;;7.32;5.60;;;17.60;92.30;;;;;;4990429;28;20117;-70
2021/05/15 07:30:50;;;;;;;8.13;5.38;;;18.20;91.90;;;;;;4991803;28;20050;-70
2021/05/15 07:33:16;;;;;;;7.78;6.07;;;18.30;91.20;;;;;;4991634;28;20031;-70
2021/05/15 07:35:41;;;;;;;9.48;5.45;;;18.70;91.30;;;;;;4993536;28;20022;-76
2021/05/15 07:38:07;;;;;;;11.90;5.45;;;19.10;90.20;;;;;;4991938;28;20061;-78
2021/05/15 07:40:33;;;;;;;10.80;4.90;;;19.10;88.90;;;;;;4990956;28;20362;-71
2021/05/15 07:42:59;;;;;;;6.00;4.00;;;19.30;89.90;;;;;;4992148;28;20376;-73
2021/05/15 07:45:25;;;;;;;6.70;4.45;;;19.30;88.10;;;;;;4991815;28;20045;-79
2021/05/15 07:47:50;;;;;;;7.38;4.70;;;19.40;88.60;;;;;;4993293;28;20351;-75
2021/05/15 07:50:16;;;;;;;7.43;3.83;;;19.50;88.10;;;;;;4972569;28;20047;-78
2021/05/15 07:52:42;;;;;;;8.68;4.32;;;19.60;88.10;;;;;;4986806;28;20049;-76
2021/05/15 07:55:08;;;;;;;3.83;3.30;;;19.90;88.40;;;;;;4991892;28;20364;-73
2021/05/15 07:57:34;;;;;;;5.32;3.67;;;19.90;84.80;;;;;;4991662;28;20031;-72
2021/05/15 08:00:00;;;;;;;7.78;3.58;;;19.20;85.90;;;;;;4991991;28;20022;-72
2021/05/15 08:02:27;;;;;;;7.95;3.47;;;19.10;85.70;;;;;;4993432;28;20081;-77
2021/05/15 08:04:58;;;;;;;4.80;3.55;;;19.10;85.30;;;;;;4991589;28;20042;-73
2021/05/15 08:07:24;;;;;;;4.75;2.80;;;18.70;85.70;;;;;;4991657;28;20442;-73
2021/05/15 08:09:50;;;;;;;4.47;3.50;;;18.40;85.60;;;;;;4991991;28;20129;-76
2021/05/15 08:12:16;;;;;;;6.38;3.53;;;18.20;86.60;;;;;;4990149;28;20038;-73
2021/05/15 08:14:41;;;;;;;6.95;3.50;;;17.90;87.60;;;;;;4991980;28;20452;-74
2021/05/15 08:17:07;;;;;;;4.22;3.25;;;17.70;88.20;;;;;;4989909;28;20097;-70
2021/05/15 08:19:33;;;;;;;4.22;3.03;;;17.50;89.10;;;;;;4991399;28;20045;-67
2021/05/15 08:21:58;;;;;;;4.93;3.20;;;17.40;89.60;;;;;;4991407;28;20043;-71
2021/05/15 08:24:24;;;;;;;3.30;2.70;;;17.40;90.00;;;;;;4990892;28;20031;-69
2021/05/15 08:26:50;;;;;;;4.32;2.35;;;17.50;89.20;;;;;;4992533;28;20058;-69
2021/05/15 08:29:18;;;;;;;3.92;2.65;;;17.40;89.00;;;;;;4990761;28;20130;-71
2021/05/15 08:31:44;;;;;;;2.40;1.95;;;17.70;89.10;;;;;;4990027;28;20045;-72
2021/05/15 08:34:12;;;;;;;4.22;2.28;;;17.90;89.20;;;;;;4990116;28;20034;-73
2021/05/15 08:36:39;;;;;;;2.92;2.15;;;18.50;89.60;;;;;;4990833;28;20179;-73
2021/05/15 08:39:06;;;;;;;3.30;2.65;;;19.20;85.90;;;;;;4990835;28;20023;-73
2021/05/15 08:41:32;;;;;;;4.13;2.78;;;19.40;85.30;;;;;;4992427;28;20015;-73
2021/05/15 08:44:01;;;;;;;4.90;2.97;;;19.60;85.10;;;;;;4990602;28;20077;-72
2021/05/15 08:46:28;;;;;;;2.95;1.83;;;20.40;84.50;;;;;;4990998;28;20416;-72
2021/05/15 08:48:56;;;;;;;5.73;2.10;;;20.70;82.30;;;;;;4991419;28;20034;-71
2021/05/15 08:51:23;;;;;;;4.03;2.08;;;20.50;79.70;;;;;;4990898;28;20463;-72
2021/05/15 08:53:49;;;;;;;3.60;1.80;;;20.40;80.50;;;;;;4992381;28;20034;-73
2021/05/15 08:56:15;;;;;;;3.85;1.88;;;20.40;80.70;;;;;;4990592;28;20262;-73
2021/05/15 08:58:41;;;;;;;4.22;1.83;;;20.20;80.40;;;;;;4990314;28;20254;-71
2021/05/15 09:01:11;;;;;;;2.60;1.35;;;19.80;80.30;;;;;;4990265;28;20046;-69
2021/05/15 09:03:38;;;;;;;2.45;0.95;;;20.00;80.60;;;;;;4990470;28;20038;-72
2021/05/15 09:06:03;;;;;;;2.03;1.20;;;20.00;79.40;;;;;;4990143;28;20022;-70
2021/05/15 09:08:29;;;;;;;2.45;1.33;;;19.70;79.70;;;;;;4991559;28;20069;-70
2021/05/15 09:10:55;;;;;;;2.30;1.10;;;19.70;79.70;;;;;;4990583;28;20134;-73
2021/05/15 09:13:26;;;;;;;2.45;1.02;;;19.20;79.60;;;;;;4989160;28;20049;-79
2021/05/15 09:16:03;;;;;;;1.88;1.02;;;18.80;80.90;;;;;;4988599;28;20042;-75
2021/05/15 09:18:33;;;;;;;1.10;0.90;;;18.40;81.10;;;;;;4990171;28;20034;-73
2021/05/15 09:21:03;;;;;;;2.90;1.00;;;18.20;82.00;;;;;;4989094;28;20026;-73
2021/05/15 09:23:32;;;;;;;2.92;1.20;;;18.00;83.30;;;;;;4991379;28;20097;-75
2021/05/15 09:26:00;;;;;;;3.22;1.30;;;17.90;83.60;;;;;;4985432;28;20043;-74
2021/05/15 09:28:46;;;;;;;2.05;1.00;;;18.10;83.70;;;;;;4982729;28;20027;-73
2021/05/15 09:31:35;;;;;;;2.05;1.05;;;18.00;83.80;;;;;;4989806;28;20117;-85
2021/05/15 09:34:04;;;;;;;3.72;1.30;;;18.20;84.10;;;;;;4990392;28;20031;-77
2021/05/15 09:36:31;;;;;;;0.90;0.90;;;18.20;84.30;;;;;;4989906;28;20038;-73
2021/05/15 09:39:08;;;;;;;4.60;1.27;;;18.20;83.40;;;;;;4989801;28;20030;-74
2021/05/15 09:41:39;;;;;;;3.78;1.40;;;18.10;83.80;;;;;;4992214;28;20076;-73
2021/05/15 09:44:08;;;;;;;3.15;1.15;;;18.00;84.30;;;;;;4992457;28;20038;-73
2021/05/15 09:46:35;;;;;;;5.13;1.52;;;17.70;84.60;;;;;;4993726;28;20054;-73
2021/05/15 09:49:02;;;;;;;2.50;1.30;;;17.40;85.30;;;;;;4994132;28;20129;-74
2021/05/15 09:51:28;;;;;;;8.35;1.65;;;17.60;86.10;;;;;;4994063;28;20104;-74
2021/05/15 09:53:54;;;;;;;3.40;1.23;;;17.70;88.00;;;;;;4995526;28;20034;-71
2021/05/15 09:56:31;;;;;;;2.88;1.05;;;17.50;87.40;;;;;;4994691;28;20034;-80
2021/05/15 09:58:57;;;;;;;1.13;0.77;;;17.40;86.90;;;;;;4993060;28;20121;-78
2021/05/15 10:01:23;;;;;;;1.40;0.77;;;17.40;86.50;;;;;;4994086;28;20166;-77
2021/05/15 10:04:02;;;;;;;2.65;1.10;;;17.40;86.90;;;;;;4993960;28;20026;-77
2021/05/15 10:06:28;;;;;;;1.63;1.02;;;17.40;87.10;;;;;;4993454;28;20100;-74
2021/05/15 10:08:54;;;;;;;2.60;0.93;;;17.40;87.90;;;;;;4995217;28;20030;-76
2021/05/15 10:11:21;;;;;;;2.17;0.80;;;17.60;88.70;;;;;;4993859;28;20141;-75
2021/05/15 10:13:47;;;;;;;2.38;1.10;;;18.00;88.90;;;;;;4993862;28;20066;-73
2021/05/15 10:16:13;;;;;;;1.50;0.70;;;18.50;87.60;;;;;;4981877;28;20053;-72
2021/05/15 10:18:39;;;;;;;2.63;0.80;;;18.90;86.20;;;;;;4979792;28;20038;-74
2021/05/15 10:21:05;;;;;;;1.70;0.77;;;19.30;86.90;;;;;;4992997;28;20468;-71
2021/05/15 10:23:39;;;;;;;2.25;0.60;;;19.60;84.80;;;;;;4994765;28;20035;-73
2021/05/15 10:26:22;;;;;;;1.15;0.60;;;19.40;83.20;;;;;;4992042;28;20094;-75
2021/05/15 10:28:59;;;;;;;2.63;0.63;;;19.00;83.00;;;;;;4993039;28;20065;-74
2021/05/15 10:31:39;;;;;;;1.30;0.60;;;19.00;82.70;;;;;;4992056;28;20034;-73
2021/05/15 10:34:06;;;;;;;2.45;0.43;;;18.90;83.00;;;;;;4993515;28;20046;-71
2021/05/15 10:36:44;;;;;;;1.30;0.60;;;18.60;83.00;;;;;;4993201;28;20659;-74
2021/05/15 10:39:09;;;;;;;3.72;0.65;;;18.60;83.10;;;;;;4993071;28;20033;-75
2021/05/15 10:41:44;;;;;;;2.17;0.40;;;18.30;83.70;;;;;;4994686;28;20022;-75
2021/05/15 10:44:13;;;;;;;1.10;0.50;;;18.30;85.00;;;;;;4992784;28;20644;-75
2021/05/15 10:46:47;;;;;;;1.20;0.50;;;18.40;85.30;;;;;;4993003;28;20058;-77
2021/05/15 10:49:26;;;;;;;2.10;0.60;;;18.50;84.60;;;;;;4993319;28;20034;-71
2021/05/15 10:52:06;;;;;;;0.32;0.32;;;18.70;85.50;;;;;;4992890;28;20035;-75
2021/05/15 10:54:39;;;;;;;0.55;0.32;;;18.90;84.10;;;;;;4991519;28;20056;-72
2021/05/15 10:57:10;;;;;;;0.38;0.28;;;19.10;82.20;;;;;;4992467;28;20029;-84
2021/05/15 10:59:38;;;;;;;0.20;0.10;;;19.20;80.70;;;;;;4994729;28;20026;-74
2021/05/15 11:02:11;;;;;;;0.60;0.30;;;19.20;76.40;;;;;;4992832;28;20129;-73
2021/05/15 11:04:53;;;;;;;1.10;0.22;;;19.30;75.50;;;;;;4992699;28;20109;-74
2021/05/15 11:07:21;;;;;;;1.33;0.40;;;19.20;75.90;;;;;;4992830;28;20034;-75
2021/05/15 11:09:51;;;;;;;1.08;0.30;;;19.00;78.00;;;;;;4992441;28;20712;-73
2021/05/15 11:12:18;;;;;;;1.15;0.50;;;19.00;78.60;;;;;;4992416;28;20026;-74
2021/05/15 11:14:45;;;;;;;0.98;0.88;;;19.00;79.20;;;;;;4994033;28;20025;-81
2021/05/15 11:17:25;;;;;;;1.20;0.60;;;18.80;79.70;;;;;;4992685;28;20050;-74
2021/05/15 11:20:03;;;;;;;4.95;0.50;;;18.30;80.10;;;;;;4992204;28;20038;-74
2021/05/15 11:22:38;;;;;;;1.02;0.60;;;18.20;81.30;;;;;;4992476;28;20042;-73
2021/05/15 11:25:15;;;;;;;3.30;0.60;;;18.00;83.50;;;;;;4991928;28;20034;-74
2021/05/15 11:27:45;;;;;;;0.63;0.60;;;17.90;85.40;;;;;;4990800;28;20084;-74
2021/05/15 11:30:25;;;;;;;0.73;0.60;;;17.80;86.50;;;;;;4990365;28;20518;-73
2021/05/15 11:33:08;;;;;;;3.05;1.00;;;17.80;85.30;;;;;;4993485;28;20286;-73
2021/05/15 11:35:40;;;;;;;1.27;0.60;;;17.50;87.80;;;;;;4992323;28;20031;-74
2021/05/15 11:38:23;;;;;;;2.70;0.85;;;17.40;87.70;;;;;;4991950;28;20069;-70
2021/05/15 11:40:48;;;;;;;1.77;0.63;;;17.40;86.80;;;;;;4992276;28;20042;-76
2021/05/15 11:43:30;;;;;;;5.45;0.50;;;17.10;88.50;;;;;;4990825;28;20049;-76
2021/05/15 11:45:57;;;;;;;1.92;0.50;;;16.80;87.00;;;;;;4991891;28;20129;-71
2021/05/15 11:48:28;;;;;;;2.17;0.90;;;16.50;86.40;;;;;;4991920;28;20030;-78
2021/05/15 11:51:04;;;;;;;1.33;0.60;;;16.70;88.50;;;;;;4993620;28;20022;-78
2021/05/15 11:53:35;;;;;;;1.58;0.57;;;16.80;87.90;;;;;;4992016;28;20038;-74
2021/05/15 11:56:01;;;;;;;0.50;0.50;;;16.60;87.90;;;;;;4991335;28;20034;-74
2021/05/15 11:58:27;;;;;;;0.32;0.30;;;16.50;87.80;;;;;;4992054;28;20053;-76
2021/05/15 12:00:53;;;;;;;2.30;0.60;;;16.50;87.60;;;;;;4991736;28;20038;-77
2021/05/15 12:03:24;;;;;;;1.15;0.82;;;16.30;86.80;;;;;;4991482;28;20038;-78
2021/05/15 12:05:50;;;;;;;2.95;1.08;;;16.30;87.40;;;;;;4992546;28;20486;-76
2021/05/15 12:08:17;;;;;;;3.40;2.10;;;16.20;88.60;;;;;;4987587;28;20564;-74
2021/05/15 12:10:44;;;;;;;6.10;2.00;;;16.30;88.90;;;;;;4986483;28;20034;-83
2021/05/15 12:13:12;;;;;;;5.40;1.60;;;16.40;89.90;;;;;;4990386;28;20471;-74
2021/05/15 12:15:39;;;;;;;5.15;2.05;;;16.40;89.70;;;;;;4989918;28;20050;-76
2021/05/15 12:18:06;;;;;;;5.68;3.58;;;16.40;89.50;;;;;;4991139;28;20026;-77
2021/05/15 12:20:43;;;;;;;2.03;1.50;;;16.40;90.40;;;;;;4993032;28;20113;-71
2021/05/15 12:23:17;;;;;;;0.90;0.60;;;16.50;91.30;;;;;;4990147;28;20046;-74
2021/05/15 12:25:54;;;;;;;3.00;1.30;;;16.60;91.10;;;;;;4990712;28;20038;-74
2021/05/15 12:28:26;;;;;;;2.25;0.63;;;16.60;92.40;;;;;;4991090;28;20096;-71
2021/05/15 12:30:52;;;;;;;2.28;0.60;;;16.70;91.30;;;;;;4991189;28;20038;-79
2021/05/15 12:33:23;;;;;;;1.58;0.63;;;16.70;90.30;;;;;;4990865;28;20030;-79
2021/05/15 12:36:03;;;;;;;1.20;0.70;;;16.90;90.70;;;;;;4992340;28;20053;-78
2021/05/15 12:38:44;;;;;;;1.58;0.70;;;17.10;90.80;;;;;;4990970;28;20089;-76